Terminal Aerodrome Forecast
Issued by NWS

Home | Current Version | Previous Version | Text Only | Print | Product List | Glossary On
Versions: 1 2 3 4 5 6 7 8 9 10 11 12 13 14 15 16 17 18 19 20 21 22 23 24 25 26
000
FTUS45 KREV 190543
TAFTVL
TAF
KTVL 190543Z 1906/2006 VRB04KT P6SM SKC
     FM191100 19010G18KT P6SM SKC WS020/24040KT
     FM191900 19018G30KT P6SM SCT080 BKN150 WS020/24045KT
     FM200300 20010G18KT P6SM -RA BKN050 OVC100=

USA.gov is the U.S. government's official web portal to all federal, state and local government web resources and services.